createdAt,value
2022-09-28T00:00:42.254Z,61.49
2022-09-28T00:03:48.797Z,61.68
2022-09-28T00:06:50.365Z,61.40
2022-09-28T00:09:51.905Z,61.57
2022-09-28T00:12:56.435Z,61.38
2022-09-28T00:16:07.335Z,61.64
2022-09-28T00:19:10.642Z,61.67
2022-09-28T00:22:12.161Z,61.58
2022-09-28T00:25:13.811Z,61.53
2022-09-28T00:28:15.353Z,61.52
2022-09-28T00:31:18.045Z,61.58
2022-09-28T00:34:20.127Z,61.60
2022-09-28T00:37:21.724Z,61.48
2022-09-28T00:40:23.293Z,61.60
2022-09-28T00:43:25.292Z,61.55
2022-09-28T00:46:36.564Z,61.45
2022-09-28T00:49:45.602Z,61.43
2022-09-28T00:53:01.010Z,61.65
2022-09-28T00:56:10.472Z,61.62
2022-09-28T00:59:12.186Z,61.64
2022-09-28T01:02:14.131Z,61.76
2022-09-28T01:05:17.977Z,61.79
2022-09-28T01:08:21.948Z,61.76
2022-09-28T01:11:24.861Z,61.82
2022-09-28T01:14:26.554Z,61.70
2022-09-28T01:17:49.966Z,61.85
2022-09-28T01:21:01.162Z,61.83
2022-09-28T01:24:21.684Z,61.75
2022-09-28T01:27:26.704Z,61.90
2022-09-28T01:30:29.027Z,61.85
2022-09-28T01:33:55.816Z,61.93
2022-09-28T01:37:01.605Z,62.02
2022-09-28T01:40:06.274Z,61.96
2022-09-28T01:43:19.852Z,62.14
2022-09-28T01:46:25.575Z,62.02
2022-09-28T01:49:38.343Z,61.93
2022-09-28T01:53:12.344Z,61.94
2022-09-28T01:56:26.813Z,61.83
2022-09-28T01:59:32.381Z,61.74
2022-09-28T02:02:45.440Z,61.94
2022-09-28T02:05:59.828Z,61.92
2022-09-28T02:09:33.027Z,61.92
2022-09-28T02:12:46.707Z,61.90
2022-09-28T02:16:05.111Z,61.86
2022-09-28T02:19:11.431Z,61.97
2022-09-28T02:22:31.988Z,61.81
2022-09-28T02:25:42.787Z,61.94
2022-09-28T02:28:44.329Z,62.01
2022-09-28T02:31:45.997Z,61.97
2022-09-28T02:34:47.579Z,61.97
2022-09-28T02:37:49.997Z,61.91
2022-09-28T02:41:20.676Z,61.88
2022-09-28T02:44:50.152Z,61.85
2022-09-28T02:48:08.700Z,62.07
2022-09-28T02:51:28.303Z,61.90
2022-09-28T02:54:54.477Z,61.94
2022-09-28T02:58:27.216Z,62.12
2022-09-28T03:01:47.182Z,62.24
2022-09-28T03:05:13.484Z,61.88
2022-09-28T03:08:29.532Z,61.93
2022-09-28T03:11:38.071Z,62.10
2022-09-28T03:14:39.767Z,61.95
2022-09-28T03:17:41.480Z,62.05
2022-09-28T03:20:43.243Z,61.92
2022-09-28T03:23:44.872Z,61.90
2022-09-28T03:26:46.408Z,61.87
2022-09-28T03:29:47.963Z,61.94
2022-09-28T03:33:00.456Z,61.89
2022-09-28T03:36:02.155Z,62.06
2022-09-28T03:39:04.472Z,62.09
2022-09-28T03:42:06.133Z,62.28
2022-09-28T03:45:07.935Z,62.10
2022-09-28T03:48:09.504Z,62.06
2022-09-28T03:51:12.560Z,62.10
2022-09-28T03:54:14.101Z,62.05
2022-09-28T03:57:15.713Z,62.02
2022-09-28T04:00:17.403Z,62.22
2022-09-28T04:03:18.981Z,62.00
2022-09-28T04:06:20.749Z,61.89
2022-09-28T04:09:22.285Z,61.92
2022-09-28T04:12:24.046Z,62.02
2022-09-28T04:15:25.788Z,62.04
2022-09-28T04:18:27.922Z,61.90
2022-09-28T04:21:29.648Z,62.10
2022-09-28T04:24:31.279Z,62.00
2022-09-28T04:27:51.392Z,61.96
2022-09-28T04:30:52.916Z,61.80
2022-09-28T04:33:54.521Z,61.91
2022-09-28T04:36:56.237Z,61.99
2022-09-28T04:39:57.847Z,61.90
2022-09-28T04:42:59.392Z,61.98
2022-09-28T04:46:02.600Z,62.16
2022-09-28T04:49:04.328Z,62.13
2022-09-28T04:52:06.528Z,62.16
2022-09-28T04:55:12.005Z,62.17
2022-09-28T04:58:13.485Z,62.23
2022-09-28T05:01:19.013Z,62.02
2022-09-28T05:04:25.594Z,62.07
2022-09-28T05:07:27.703Z,62.14
2022-09-28T05:10:29.216Z,62.10
2022-09-28T05:13:31.738Z,62.01
2022-09-28T05:16:36.075Z,62.14
2022-09-28T05:19:37.775Z,61.99
2022-09-28T05:22:39.348Z,61.99
2022-09-28T05:25:41.461Z,62.01
2022-09-28T05:28:43.129Z,62.08
2022-09-28T05:31:44.763Z,61.93
2022-09-28T05:34:46.380Z,61.87
2022-09-28T05:37:48.091Z,63.28
2022-09-28T05:40:49.762Z,64.04
2022-09-28T05:43:52.332Z,64.18
2022-09-28T05:46:54.747Z,63.43
2022-09-28T05:49:56.241Z,62.63
2022-09-28T05:53:02.563Z,62.39
2022-09-28T05:56:04.205Z,62.39
2022-09-28T05:59:06.268Z,62.31
2022-09-28T06:02:07.856Z,62.35
2022-09-28T06:05:09.498Z,62.36
2022-09-28T06:08:11.648Z,62.30
2022-09-28T06:11:13.228Z,62.38
2022-09-28T06:14:14.947Z,62.33
2022-09-28T06:17:16.777Z,62.42
2022-09-28T06:20:18.356Z,62.34
2022-09-28T06:23:19.955Z,62.34
2022-09-28T06:26:21.623Z,62.40
2022-09-28T06:29:23.185Z,62.18
2022-09-28T06:32:24.735Z,62.33
2022-09-28T06:35:30.317Z,62.14
2022-09-28T06:38:33.878Z,62.30
2022-09-28T06:41:35.462Z,62.27
2022-09-28T06:44:37.036Z,62.37
2022-09-28T06:47:38.605Z,62.46
2022-09-28T06:50:41.693Z,62.50
2022-09-28T06:53:43.203Z,62.47
2022-09-28T06:56:44.724Z,62.29
2022-09-28T06:59:46.237Z,62.36
2022-09-28T07:02:47.929Z,62.29
2022-09-28T07:05:51.533Z,62.52
2022-09-28T07:09:04.575Z,62.49
2022-09-28T07:12:14.668Z,62.72
2022-09-28T07:15:16.383Z,62.45
2022-09-28T07:18:18.735Z,62.38
2022-09-28T07:21:29.369Z,62.38
2022-09-28T07:24:31.537Z,62.44
2022-09-28T07:27:33.365Z,62.43
2022-09-28T07:30:35.564Z,62.73
2022-09-28T07:33:38.023Z,62.60
2022-09-28T07:36:39.570Z,62.25
2022-09-28T07:39:59.944Z,62.52
2022-09-28T07:43:05.713Z,62.36
2022-09-28T07:46:14.981Z,62.37
2022-09-28T07:49:16.853Z,62.28
2022-09-28T07:52:18.660Z,62.40
2022-09-28T07:55:20.197Z,62.41
2022-09-28T07:58:22.268Z,62.46
2022-09-28T08:01:24.471Z,62.54
2022-09-28T08:04:26.077Z,62.30
2022-09-28T08:07:28.014Z,62.20
2022-09-28T08:10:29.712Z,62.35
2022-09-28T08:13:31.213Z,62.43
2022-09-28T08:16:32.911Z,62.32
2022-09-28T08:19:52.996Z,62.58
2022-09-28T08:22:54.804Z,62.35
2022-09-28T08:25:56.344Z,62.28
2022-09-28T08:28:57.861Z,62.38
2022-09-28T08:32:02.304Z,62.45
2022-09-28T08:35:04.065Z,62.15
2022-09-28T08:38:05.696Z,62.32
2022-09-28T08:41:45.119Z,62.33
2022-09-28T08:44:50.995Z,62.45
2022-09-28T08:48:38.262Z,62.42
2022-09-28T08:52:00.978Z,62.55
2022-09-28T08:55:28.738Z,62.78
2022-09-28T08:58:36.836Z,62.61
2022-09-28T09:01:45.145Z,62.49
2022-09-28T09:04:47.101Z,62.47
2022-09-28T09:08:00.744Z,62.65
2022-09-28T09:11:14.937Z,62.51
2022-09-28T09:14:27.784Z,62.58
2022-09-28T09:17:35.389Z,62.50
2022-09-28T09:20:59.143Z,62.74
2022-09-28T09:24:17.424Z,62.77
2022-09-28T09:28:10.567Z,62.95
2022-09-28T09:31:38.270Z,62.67
2022-09-28T09:35:11.397Z,62.75
2022-09-28T09:38:31.375Z,62.64
2022-09-28T09:41:35.850Z,62.43
2022-09-28T09:45:11.625Z,62.48
2022-09-28T09:48:29.384Z,62.42
2022-09-28T09:51:36.949Z,63.38
2022-09-28T09:54:47.988Z,63.11
2022-09-28T09:58:01.299Z,62.51
2022-09-28T10:01:12.289Z,62.36
2022-09-28T10:04:39.473Z,62.46
2022-09-28T10:08:01.453Z,62.39
2022-09-28T10:11:12.754Z,62.93
2022-09-28T10:14:17.570Z,63.46
2022-09-28T10:17:26.633Z,62.99
2022-09-28T10:20:32.672Z,62.61
2022-09-28T10:23:36.763Z,62.54
2022-09-28T10:26:43.349Z,62.39
2022-09-28T10:29:54.298Z,62.36
2022-09-28T10:32:59.480Z,62.07
2022-09-28T10:36:04.755Z,62.53
2022-09-28T10:39:06.467Z,62.25
2022-09-28T10:42:11.676Z,61.68
2022-09-28T10:45:13.853Z,61.75
2022-09-28T10:48:19.842Z,61.59
2022-09-28T10:51:43.719Z,62.00
2022-09-28T10:54:53.597Z,62.02
2022-09-28T10:57:55.450Z,61.79
2022-09-28T11:01:03.711Z,61.61
2022-09-28T11:04:10.470Z,61.61
2022-09-28T11:07:32.874Z,61.59
2022-09-28T11:10:34.661Z,61.70
2022-09-28T11:13:42.341Z,61.34
2022-09-28T11:16:44.335Z,61.14
2022-09-28T11:19:46.187Z,60.98
2022-09-28T11:22:51.601Z,60.94
2022-09-28T11:26:17.700Z,61.07
2022-09-28T11:29:24.732Z,60.66
2022-09-28T11:32:39.684Z,61.08
2022-09-28T11:35:52.713Z,60.93
2022-09-28T11:39:22.440Z,60.69
2022-09-28T11:42:34.113Z,60.76
2022-09-28T11:46:08.111Z,61.03
2022-09-28T11:49:35.567Z,60.85
2022-09-28T11:52:46.706Z,60.75
2022-09-28T11:55:57.263Z,61.13
2022-09-28T11:59:13.335Z,61.11
2022-09-28T12:02:26.003Z,60.96
2022-09-28T12:05:36.524Z,60.99
2022-09-28T12:08:45.989Z,60.97
2022-09-28T12:11:52.340Z,60.65
2022-09-28T12:14:59.764Z,60.74
2022-09-28T12:18:07.245Z,60.74
2022-09-28T12:21:24.462Z,61.12
2022-09-28T12:24:32.545Z,60.84
2022-09-28T12:28:15.581Z,60.48
2022-09-28T12:32:05.997Z,60.42
2022-09-28T12:35:17.973Z,60.38
2022-09-28T12:38:22.602Z,60.58
2022-09-28T12:41:33.725Z,60.25
2022-09-28T12:45:17.451Z,60.54
2022-09-28T12:48:18.937Z,60.24
2022-09-28T12:51:26.415Z,60.24
2022-09-28T12:54:53.850Z,60.16
2022-09-28T12:58:05.649Z,60.15
2022-09-28T13:01:48.706Z,60.41
2022-09-28T13:05:20.520Z,60.32
2022-09-28T13:08:43.628Z,60.24
2022-09-28T13:11:53.704Z,60.34
2022-09-28T13:15:08.681Z,60.49
2022-09-28T13:18:30.483Z,60.33
2022-09-28T13:21:41.495Z,60.10
2022-09-28T13:24:46.472Z,59.94
2022-09-28T13:27:53.375Z,59.86
2022-09-28T13:34:03.086Z,59.64
2022-09-28T13:37:10.029Z,59.76
2022-09-28T13:40:11.775Z,59.61
2022-09-28T13:43:28.689Z,59.52
2022-09-28T13:47:04.143Z,59.43
2022-09-28T13:50:23.712Z,59.67
2022-09-28T13:53:51.120Z,59.83
2022-09-28T13:56:59.915Z,59.76
2022-09-28T14:00:22.104Z,59.78
2022-09-28T14:03:28.237Z,59.36
2022-09-28T14:06:32.490Z,59.19
2022-09-28T14:09:48.134Z,59.44
2022-09-28T14:12:51.538Z,59.44
2022-09-28T14:15:53.591Z,59.10
2022-09-28T14:18:57.964Z,59.08
2022-09-28T14:22:37.609Z,59.35
2022-09-28T14:25:45.025Z,59.33
2022-09-28T14:28:58.759Z,59.15
2022-09-28T14:32:09.158Z,59.09
2022-09-28T14:35:27.613Z,59.19
2022-09-28T14:38:51.706Z,58.91
2022-09-28T14:41:53.426Z,59.15
2022-09-28T14:45:06.724Z,59.05
2022-09-28T14:48:15.255Z,59.09
2022-09-28T14:51:30.226Z,59.04
2022-09-28T14:54:45.369Z,58.85
2022-09-28T14:57:53.368Z,58.74
2022-09-28T15:01:02.940Z,58.67
2022-09-28T15:04:10.197Z,58.70
2022-09-28T15:07:23.479Z,58.70
2022-09-28T15:10:32.505Z,58.61
2022-09-28T15:13:34.198Z,58.49
2022-09-28T15:16:35.759Z,58.52
2022-09-28T15:20:11.172Z,58.59
2022-09-28T15:23:39.248Z,58.77
2022-09-28T15:26:40.826Z,58.70
2022-09-28T15:30:00.126Z,58.76
2022-09-28T15:33:22.406Z,58.67
2022-09-28T15:36:30.010Z,58.80
2022-09-28T15:39:34.178Z,58.55
2022-09-28T15:42:37.082Z,58.90
2022-09-28T15:45:40.681Z,58.59
2022-09-28T15:48:51.781Z,58.64
2022-09-28T15:51:56.141Z,58.63
2022-09-28T15:54:57.768Z,58.55
2022-09-28T15:58:15.804Z,58.65
2022-09-28T16:01:23.301Z,58.77
2022-09-28T16:04:43.914Z,58.83
2022-09-28T16:07:56.118Z,59.05
2022-09-28T16:11:04.735Z,58.71
2022-09-28T16:14:27.306Z,58.98
2022-09-28T16:17:35.025Z,58.92
2022-09-28T16:20:39.071Z,59.00
2022-09-28T16:23:41.600Z,58.97
2022-09-28T16:26:43.156Z,59.11
2022-09-28T16:30:16.694Z,59.02
2022-09-28T16:33:31.080Z,59.04
2022-09-28T16:36:45.415Z,59.01
2022-09-28T16:39:46.980Z,59.15
2022-09-28T16:42:49.556Z,58.90
2022-09-28T16:45:51.257Z,59.20
2022-09-28T16:48:55.374Z,59.05
2022-09-28T16:51:56.900Z,58.97
2022-09-28T16:55:39.612Z,59.10
2022-09-28T16:58:38.990Z,59.18
2022-09-28T17:01:43.783Z,59.18
2022-09-28T17:04:47.722Z,59.12
2022-09-28T17:08:02.145Z,59.21
2022-09-28T17:11:24.100Z,59.07
2022-09-28T17:14:26.156Z,59.21
2022-09-28T17:17:29.969Z,59.08
2022-09-28T17:20:33.424Z,59.22
2022-09-28T17:23:34.962Z,59.28
2022-09-28T17:26:36.876Z,59.08
2022-09-28T17:29:38.447Z,59.14
2022-09-28T17:32:47.193Z,59.20
2022-09-28T17:35:51.571Z,59.14
2022-09-28T17:38:53.207Z,59.16
2022-09-28T17:41:54.818Z,59.22
2022-09-28T17:44:56.344Z,59.15
2022-09-28T17:47:58.538Z,59.20
2022-09-28T17:51:02.043Z,59.21
2022-09-28T17:54:04.450Z,59.11
2022-09-28T17:57:06.002Z,59.00
2022-09-28T18:00:09.836Z,59.10
2022-09-28T18:03:19.878Z,59.11
2022-09-28T18:06:23.443Z,59.01
2022-09-28T18:09:25.321Z,59.05
2022-09-28T18:12:27.197Z,59.02
2022-09-28T18:15:28.800Z,59.05
2022-09-28T18:18:33.253Z,59.03
2022-09-28T18:21:34.955Z,58.99
2022-09-28T18:24:36.737Z,58.99
2022-09-28T18:27:38.338Z,59.09
2022-09-28T18:30:41.924Z,58.95
2022-09-28T18:33:43.492Z,58.94
2022-09-28T18:36:45.496Z,58.96
2022-09-28T18:39:47.065Z,59.01
2022-09-28T18:42:50.075Z,59.00
2022-09-28T18:45:51.597Z,59.00
2022-09-28T18:48:53.336Z,59.01
2022-09-28T18:51:54.927Z,58.95
2022-09-28T18:54:56.485Z,59.03
2022-09-28T18:57:58.029Z,59.03
2022-09-28T19:01:25.210Z,58.87
2022-09-28T19:04:21.249Z,58.91
2022-09-28T19:07:23.317Z,59.06
2022-09-28T19:10:24.841Z,58.91
2022-09-28T19:13:28.254Z,58.74
2022-09-28T19:16:33.692Z,58.93
2022-09-28T19:19:35.808Z,58.91
2022-09-28T19:22:37.356Z,58.77
2022-09-28T19:25:40.334Z,58.78
2022-09-28T19:28:42.017Z,58.79
2022-09-28T19:31:43.567Z,58.87
2022-09-28T19:34:45.123Z,58.87
2022-09-28T19:37:46.785Z,58.89
2022-09-28T19:40:48.367Z,58.95
2022-09-28T19:43:50.116Z,58.76
2022-09-28T19:47:21.746Z,58.80
2022-09-28T19:50:23.727Z,58.68
2022-09-28T19:53:30.391Z,58.71
2022-09-28T19:56:33.409Z,58.76
2022-09-28T19:59:36.788Z,58.89
2022-09-28T20:02:38.534Z,58.89
2022-09-28T20:05:41.553Z,58.87
2022-09-28T20:08:44.189Z,58.83
2022-09-28T20:11:46.809Z,58.97
2022-09-28T20:14:48.328Z,58.92
2022-09-28T20:17:49.965Z,58.81
2022-09-28T20:21:02.201Z,58.90
2022-09-28T20:24:05.062Z,59.23
2022-09-28T20:27:06.887Z,59.10
2022-09-28T20:30:09.165Z,59.05
2022-09-28T20:33:15.707Z,58.92
2022-09-28T20:36:23.209Z,59.12
2022-09-28T20:39:24.888Z,58.93
2022-09-28T20:42:26.688Z,59.01
2022-09-28T20:45:28.251Z,59.10
2022-09-28T20:48:29.975Z,58.97
2022-09-28T20:51:32.216Z,58.96
2022-09-28T20:54:33.736Z,58.90
2022-09-28T20:57:35.313Z,58.91
2022-09-28T21:00:36.958Z,59.04
2022-09-28T21:03:39.137Z,59.03
2022-09-28T21:06:42.226Z,58.97
2022-09-28T21:09:43.739Z,58.93
2022-09-28T21:12:53.084Z,59.05
2022-09-28T21:15:54.745Z,59.05
2022-09-28T21:18:56.696Z,59.02
2022-09-28T21:21:58.240Z,59.13
2022-09-28T21:24:59.769Z,59.38
2022-09-28T21:28:01.501Z,59.29
2022-09-28T21:31:05.755Z,58.97
2022-09-28T21:34:13.193Z,59.11
2022-09-28T21:37:14.749Z,58.98
2022-09-28T21:40:16.354Z,58.90
2022-09-28T21:43:17.921Z,59.12
2022-09-28T21:46:19.521Z,59.20
2022-09-28T21:49:21.211Z,59.10
2022-09-28T21:52:22.816Z,59.12
2022-09-28T21:55:24.417Z,59.17
2022-09-28T21:58:28.747Z,59.13
2022-09-28T22:01:31.383Z,59.20
2022-09-28T22:04:32.962Z,59.11
2022-09-28T22:07:34.556Z,59.34
2022-09-28T22:10:36.355Z,59.31
2022-09-28T22:13:43.676Z,59.33
2022-09-28T22:16:45.274Z,59.08
2022-09-28T22:19:46.860Z,59.14
2022-09-28T22:22:50.025Z,59.13
2022-09-28T22:25:58.384Z,59.33
2022-09-28T22:29:02.387Z,59.30
2022-09-28T22:32:03.959Z,59.22
2022-09-28T22:35:06.046Z,59.31
2022-09-28T22:38:07.588Z,59.25
2022-09-28T22:41:09.952Z,59.48
2022-09-28T22:44:11.488Z,59.34
2022-09-28T22:47:13.788Z,59.40
2022-09-28T22:50:15.343Z,59.51
2022-09-28T22:53:17.468Z,59.30
2022-09-28T22:56:19.386Z,59.33
2022-09-28T22:59:21.029Z,59.42
2022-09-28T23:02:22.763Z,59.64
2022-09-28T23:05:24.453Z,59.48
2022-09-28T23:08:26.018Z,59.53
2022-09-28T23:11:29.073Z,59.53
2022-09-28T23:14:30.612Z,59.51
2022-09-28T23:17:32.227Z,59.46
2022-09-28T23:20:34.136Z,59.37
2022-09-28T23:23:35.757Z,59.53
2022-09-28T23:26:37.260Z,59.53
2022-09-28T23:29:46.158Z,59.67
2022-09-28T23:32:47.647Z,59.54
2022-09-28T23:35:49.826Z,59.68
2022-09-28T23:38:51.374Z,59.50
2022-09-28T23:41:52.924Z,59.66
2022-09-28T23:44:54.505Z,59.78
2022-09-28T23:47:56.864Z,59.77
2022-09-28T23:50:58.731Z,59.83
2022-09-28T23:54:00.310Z,59.83
2022-09-28T23:57:01.824Z,59.85
